Time;durP1;ratioP1;P1;durP2;ratioP2;P2;SDS_P1;SDS_P2;PMS_P1;PMS_P2;Temp;Humidity;BMP_temperature;BMP_pressure;BME280_temperature;BME280_humidity;BME280_pressure;Samples;Min_cycle;Max_cycle;Signal;HPM_P1;HPM_P2
2022/12/18 00:01:41;;;;;;;130.32;51.25;;;-2.80;99.90;;;;;;5016454;28;20047;-65
2022/12/18 00:04:18;;;;;;;123.82;52.28;;;-2.80;99.90;;;;;;5014730;28;20048;-66
2022/12/18 00:06:45;;;;;;;;;;;-2.70;99.90;;;;;;5015326;28;20494;-65
2022/12/18 00:09:14;;;;;;;133.70;52.08;;;-2.80;99.90;;;;;;5013876;28;19925;-64
2022/12/18 00:11:41;;;;;;;116.82;44.50;;;-2.80;99.90;;;;;;5016375;28;20072;-64
2022/12/18 00:14:10;;;;;;;129.13;51.20;;;-2.80;99.90;;;;;;5015767;28;20791;-64
2022/12/18 00:16:37;;;;;;;141.02;54.53;;;-2.80;99.90;;;;;;5015195;28;20045;-64
2022/12/18 00:19:05;;;;;;;120.63;49.97;;;-2.80;99.90;;;;;;5014146;28;20053;-64
2022/12/18 00:21:32;;;;;;;108.28;46.20;;;-2.90;99.90;;;;;;5014123;28;20541;-64
2022/12/18 00:24:00;;;;;;;112.38;45.47;;;-2.90;99.90;;;;;;5015608;28;20068;-65
2022/12/18 00:26:32;;;;;;;126.43;52.03;;;-2.90;99.90;;;;;;5016254;28;20041;-64
2022/12/18 00:29:06;;;;;;;121.82;48.15;;;-2.90;99.90;;;;;;5015558;28;20040;-64
2022/12/18 00:31:34;;;;;;;117.93;48.22;;;-2.90;99.90;;;;;;5016826;28;20041;-65
2022/12/18 00:34:01;;;;;;;117.88;49.65;;;-2.90;99.90;;;;;;5014881;28;20045;-65
2022/12/18 00:36:32;;;;;;;133.57;54.05;;;-3.00;99.90;;;;;;5029709;28;20187;-64
2022/12/18 00:39:00;;;;;;;134.23;49.38;;;-3.00;99.90;;;;;;5015524;28;20053;-64
2022/12/18 00:44:15;;;;;;;135.98;50.08;;;-3.10;99.90;;;;;;5012772;28;20144;-64
2022/12/18 00:46:43;;;;;;;129.45;49.53;;;-3.10;99.90;;;;;;5014876;28;20050;-63
2022/12/18 00:49:10;;;;;;;127.72;46.38;;;-3.10;99.90;;;;;;5012891;28;20068;-64
2022/12/18 00:51:37;;;;;;;130.50;48.45;;;-3.10;99.90;;;;;;5016384;28;20553;-64
2022/12/18 00:54:04;;;;;;;126.72;50.53;;;-3.10;99.90;;;;;;5016246;28;20112;-64
2022/12/18 00:56:31;;;;;;;122.13;48.85;;;-3.20;99.90;;;;;;5014054;28;20045;-65
2022/12/18 00:58:58;;;;;;;131.02;51.55;;;-3.20;99.90;;;;;;5014163;28;20511;-64
2022/12/18 01:01:25;;;;;;;132.35;51.25;;;-3.10;99.90;;;;;;5015818;28;20732;-64
2022/12/18 01:03:51;;;;;;;117.88;47.15;;;-3.10;99.90;;;;;;5014577;28;20042;-66
2022/12/18 01:06:19;;;;;;;122.63;46.97;;;-3.10;99.90;;;;;;5014594;28;20033;-66
2022/12/18 01:08:46;;;;;;;127.60;46.85;;;-3.10;99.90;;;;;;5014397;28;20053;-65
2022/12/18 01:11:16;;;;;;;128.80;45.63;;;-3.10;99.90;;;;;;5012809;28;20939;-66
2022/12/18 01:13:43;;;;;;;122.05;46.33;;;-3.10;99.90;;;;;;5015727;28;20036;-66
2022/12/18 01:16:15;;;;;;;121.10;45.63;;;-3.10;99.90;;;;;;5011607;28;20163;-66
2022/12/18 01:18:42;;;;;;;113.90;46.75;;;-3.10;99.90;;;;;;5014196;28;20052;-65
2022/12/18 01:21:12;;;;;;;132.10;50.00;;;-3.10;99.90;;;;;;5017636;28;20080;-65
2022/12/18 01:23:39;;;;;;;124.70;47.25;;;-3.10;99.90;;;;;;5016210;28;20779;-65
2022/12/18 01:26:12;;;;;;;132.32;49.88;;;-3.20;99.90;;;;;;5016049;28;20390;-66
2022/12/18 01:28:40;;;;;;;125.05;45.83;;;-3.20;99.90;;;;;;5027546;28;20732;-65
2022/12/18 01:31:27;;;;;;;127.65;48.83;;;-3.20;99.90;;;;;;5016350;28;20099;-65
2022/12/18 01:33:55;;;;;;;133.55;48.90;;;-3.20;99.90;;;;;;5029434;28;20105;-67
2022/12/18 01:36:25;;;;;;;134.23;50.85;;;-3.20;99.90;;;;;;5010650;28;20096;-64
2022/12/18 01:38:53;;;;;;;141.75;50.85;;;-3.20;99.90;;;;;;5017392;28;20060;-65
2022/12/18 01:41:25;;;;;;;123.05;47.67;;;-3.20;99.90;;;;;;5010337;28;20045;-65
2022/12/18 01:43:55;;;;;;;124.53;48.05;;;-3.20;99.90;;;;;;5013914;28;20080;-65
2022/12/18 01:46:24;;;;;;;134.15;48.33;;;-3.20;99.90;;;;;;5015162;28;20042;-64
2022/12/18 01:48:56;;;;;;;117.95;45.17;;;-3.20;99.90;;;;;;5012764;28;20045;-64
2022/12/18 01:51:25;;;;;;;124.30;44.60;;;-3.20;99.90;;;;;;5020814;28;20270;-62
2022/12/18 01:53:52;;;;;;;133.63;47.78;;;-3.20;99.90;;;;;;5017454;28;20676;-64
2022/12/18 01:56:20;;;;;;;125.57;46.42;;;-3.20;99.90;;;;;;5017508;28;20044;-63
2022/12/18 01:59:01;;;;;;;125.97;46.78;;;-3.20;99.90;;;;;;5021372;28;20044;-63
2022/12/18 02:01:30;;;;;;;124.65;47.85;;;-3.20;99.90;;;;;;5016922;28;20114;-63
2022/12/18 02:04:20;;;;;;;120.57;43.50;;;-3.30;99.90;;;;;;5012865;28;20053;-63
2022/12/18 02:06:54;;;;;;;119.15;47.30;;;-3.30;99.90;;;;;;5024012;28;20051;-64
2022/12/18 02:09:30;;;;;;;111.60;42.65;;;-3.40;99.90;;;;;;5017915;28;20052;-65
2022/12/18 02:12:12;;;;;;;117.38;45.53;;;-3.40;99.90;;;;;;5018021;28;20103;-63
2022/12/18 02:15:05;;;;;;;133.88;50.40;;;-3.40;99.90;;;;;;5016613;28;20037;-63
2022/12/18 02:17:42;;;;;;;132.80;48.50;;;-3.40;99.90;;;;;;5017475;28;20869;-65
2022/12/18 02:20:35;;;;;;;123.60;45.55;;;-3.40;99.90;;;;;;5018844;28;20055;-64
2022/12/18 02:23:23;;;;;;;122.60;45.42;;;-3.30;99.90;;;;;;5020515;28;20045;-64
2022/12/18 02:25:57;;;;;;;113.63;43.20;;;-3.30;99.90;;;;;;5019559;28;20144;-64
2022/12/18 02:28:27;;;;;;;124.90;46.60;;;-3.40;99.90;;;;;;5019159;28;20107;-65
2022/12/18 02:31:07;;;;;;;124.47;48.67;;;-3.40;99.90;;;;;;5021157;28;20037;-63
2022/12/18 02:33:36;;;;;;;114.50;42.45;;;-3.40;99.90;;;;;;5019321;28;20056;-65
2022/12/18 02:36:05;;;;;;;118.82;45.13;;;-3.40;99.90;;;;;;5014762;28;20069;-64
2022/12/18 02:38:34;;;;;;;127.45;47.78;;;-3.40;99.90;;;;;;5013468;28;20053;-65
2022/12/18 02:41:07;;;;;;;117.45;45.97;;;-3.40;99.90;;;;;;5018376;28;20044;-64
2022/12/18 02:43:35;;;;;;;116.90;45.53;;;-3.30;99.90;;;;;;5018509;28;20076;-66
2022/12/18 02:46:25;;;;;;;116.97;43.72;;;-3.30;99.90;;;;;;5019785;28;20040;-65
2022/12/18 02:49:02;;;;;;;127.45;44.35;;;-3.30;99.90;;;;;;5032382;28;20052;-66
2022/12/18 02:51:39;;;;;;;123.28;45.17;;;-3.40;99.90;;;;;;5017479;28;20045;-65
2022/12/18 02:54:13;;;;;;;;;;;-3.40;99.90;;;;;;5018348;28;20182;-66
2022/12/18 02:56:53;;;;;;;107.07;40.53;;;-3.40;99.90;;;;;;5030943;28;20713;-66
2022/12/18 02:59:45;;;;;;;119.07;43.15;;;-3.40;99.90;;;;;;5016635;28;20639;-66
2022/12/18 03:02:22;;;;;;;117.30;43.72;;;-3.50;99.90;;;;;;5014182;28;20888;-64
2022/12/18 03:05:12;;;;;;;112.25;44.08;;;-3.50;99.90;;;;;;5031406;28;20755;-65
2022/12/18 03:07:51;;;;;;;128.88;49.00;;;-3.50;99.90;;;;;;5015790;28;20739;-65
2022/12/18 03:10:24;;;;;;;113.20;41.22;;;-3.50;99.90;;;;;;5007924;28;20153;-65
2022/12/18 03:12:58;;;;;;;121.18;47.53;;;-3.60;99.90;;;;;;5013249;28;20047;-65
2022/12/18 03:15:30;;;;;;;121.07;44.20;;;-3.60;99.90;;;;;;5033401;28;20060;-65
2022/12/18 03:18:12;;;;;;;130.02;46.38;;;-3.60;99.90;;;;;;5022788;28;20049;-61
2022/12/18 03:20:44;;;;;;;119.75;44.38;;;-3.60;99.90;;;;;;5016116;28;20132;-66
2022/12/18 03:23:18;;;;;;;116.20;43.40;;;-3.60;99.90;;;;;;5031494;28;20509;-63
2022/12/18 03:25:52;;;;;;;113.28;42.38;;;-3.60;99.90;;;;;;5016184;28;20041;-64
2022/12/18 03:28:22;;;;;;;109.55;41.42;;;-3.60;99.90;;;;;;5015558;28;20583;-64
2022/12/18 03:30:58;;;;;;;124.68;43.17;;;-3.60;99.90;;;;;;5022148;28;20463;-63
2022/12/18 03:33:34;;;;;;;121.13;44.22;;;-3.60;99.90;;;;;;5015064;28;20115;-62
2022/12/18 03:36:01;;;;;;;113.80;42.30;;;-3.60;99.90;;;;;;5017323;28;20050;-64
2022/12/18 03:38:28;;;;;;;97.43;39.75;;;-3.60;99.90;;;;;;5015279;28;20798;-63
2022/12/18 03:41:22;;;;;;;106.55;42.22;;;-3.60;99.90;;;;;;5015030;28;20077;-63
2022/12/18 03:44:28;;;;;;;102.22;42.55;;;-3.50;99.90;;;;;;5017224;28;20092;-64
2022/12/18 03:47:13;;;;;;;101.10;38.60;;;-3.50;99.90;;;;;;5015543;28;20059;-64
2022/12/18 03:50:07;;;;;;;115.30;42.45;;;-3.50;99.90;;;;;;5016742;28;20056;-66
2022/12/18 03:52:56;;;;;;;95.75;39.75;;;-3.60;99.90;;;;;;5023170;28;20479;-64
2022/12/18 03:55:27;;;;;;;97.25;39.03;;;-3.60;99.90;;;;;;5015253;28;20041;-64
2022/12/18 03:58:01;;;;;;;94.75;37.28;;;-3.60;99.90;;;;;;5017576;28;20042;-62
2022/12/18 04:00:39;;;;;;;90.63;38.60;;;-3.60;99.90;;;;;;5017391;28;20530;-63
2022/12/18 04:03:12;;;;;;;97.32;37.92;;;-3.60;99.90;;;;;;5015686;28;20570;-64
2022/12/18 04:05:45;;;;;;;94.88;38.05;;;-3.70;99.90;;;;;;5012310;28;20423;-64
2022/12/18 04:08:14;;;;;;;86.25;36.50;;;-3.70;99.90;;;;;;5015105;28;20049;-64
2022/12/18 04:10:47;;;;;;;98.50;37.90;;;-3.70;99.90;;;;;;5015373;28;20066;-63
2022/12/18 04:13:28;;;;;;;84.68;34.67;;;-3.80;99.90;;;;;;5014246;28;20099;-64
2022/12/18 04:15:56;;;;;;;96.65;37.67;;;-3.80;99.90;;;;;;5016087;28;20049;-63
2022/12/18 04:18:23;;;;;;;91.20;36.95;;;-3.80;99.90;;;;;;5014414;28;20092;-63
2022/12/18 04:20:51;;;;;;;88.35;36.50;;;-3.80;99.90;;;;;;5016402;28;20480;-66
2022/12/18 04:23:17;;;;;;;90.53;35.83;;;-3.90;99.90;;;;;;5014230;28;20158;-66
2022/12/18 04:25:46;;;;;;;91.53;36.63;;;-3.90;99.90;;;;;;5015297;28;20042;-64
2022/12/18 04:28:19;;;;;;;100.88;38.50;;;-3.90;99.90;;;;;;5031924;28;20794;-62
2022/12/18 04:30:47;;;;;;;89.47;36.85;;;-3.90;99.90;;;;;;5014288;28;20045;-66
2022/12/18 04:33:17;;;;;;;94.55;36.40;;;-3.90;99.90;;;;;;5015708;28;20110;-66
2022/12/18 04:35:44;;;;;;;87.72;34.97;;;-3.90;99.90;;;;;;5006367;28;20238;-66
2022/12/18 04:38:13;;;;;;;96.95;37.33;;;-3.90;99.90;;;;;;5015657;28;20081;-64
2022/12/18 04:40:39;;;;;;;103.97;38.97;;;-3.90;99.90;;;;;;5018284;28;20053;-63
2022/12/18 04:43:15;;;;;;;90.00;37.40;;;-3.90;99.90;;;;;;5022834;28;20114;-63
2022/12/18 04:45:41;;;;;;;91.25;36.00;;;-3.90;99.90;;;;;;5018126;28;20049;-63
2022/12/18 04:48:08;;;;;;;91.22;36.28;;;-3.90;99.90;;;;;;5014391;28;20045;-64
2022/12/18 04:50:36;;;;;;;96.07;35.90;;;-4.00;99.90;;;;;;5014879;28;20037;-66
2022/12/18 04:53:03;;;;;;;94.25;35.55;;;-4.00;99.90;;;;;;5013898;28;20129;-64
2022/12/18 04:55:30;;;;;;;88.80;34.47;;;-4.00;99.90;;;;;;5015358;28;20061;-65
2022/12/18 04:57:56;;;;;;;92.30;34.88;;;-4.10;99.90;;;;;;5016322;28;20045;-65
2022/12/18 05:00:23;;;;;;;88.93;35.13;;;-4.00;99.90;;;;;;5014010;28;20040;-66
2022/12/18 05:02:51;;;;;;;94.93;35.83;;;-4.00;99.90;;;;;;5030086;28;20034;-64
2022/12/18 05:05:18;;;;;;;83.90;34.03;;;-4.00;99.90;;;;;;5015710;28;20796;-64
2022/12/18 05:07:45;;;;;;;88.20;35.95;;;-4.10;99.90;;;;;;5013595;28;20168;-67
2022/12/18 05:10:11;;;;;;;99.45;37.13;;;-4.10;99.90;;;;;;5016237;28;20124;-64
2022/12/18 05:12:57;;;;;;;;;;;-4.10;99.90;;;;;;5016146;28;20120;-65
2022/12/18 05:15:30;;;;;;;86.93;32.80;;;-4.20;99.90;;;;;;5012668;28;19925;-65
2022/12/18 05:17:58;;;;;;;88.47;32.13;;;-4.20;99.90;;;;;;5013827;28;20107;-65
2022/12/18 05:20:25;;;;;;;82.07;32.42;;;-4.30;99.90;;;;;;5012642;28;20061;-66
2022/12/18 05:22:53;;;;;;;73.85;31.45;;;-4.30;99.90;;;;;;5013388;28;20103;-65
2022/12/18 05:25:20;;;;;;;94.57;36.10;;;-4.30;99.90;;;;;;5013859;28;20041;-63
2022/12/18 05:27:48;;;;;;;92.65;33.08;;;-4.30;99.90;;;;;;5017937;28;20617;-66
2022/12/18 05:30:15;;;;;;;88.70;35.00;;;-4.30;99.90;;;;;;5019511;28;20551;-66
2022/12/18 05:32:42;;;;;;;88.60;34.60;;;-4.30;99.90;;;;;;5019280;28;20566;-64
2022/12/18 05:35:10;;;;;;;93.95;33.85;;;-4.30;99.90;;;;;;5019367;28;20044;-66
2022/12/18 05:37:37;;;;;;;97.65;36.05;;;-4.30;99.90;;;;;;5020317;28;21054;-65
2022/12/18 05:40:10;;;;;;;90.15;34.42;;;-4.30;99.90;;;;;;5024312;28;20541;-64
2022/12/18 05:42:37;;;;;;;91.63;35.92;;;-4.30;99.90;;;;;;5018540;28;20051;-64
2022/12/18 05:45:05;;;;;;;89.32;33.47;;;-4.30;99.90;;;;;;5017649;28;20110;-65
2022/12/18 05:47:31;;;;;;;101.65;34.60;;;-4.40;99.90;;;;;;5017932;28;20119;-65
2022/12/18 05:49:58;;;;;;;85.43;34.88;;;-4.40;99.90;;;;;;5019871;28;20571;-65
2022/12/18 05:52:25;;;;;;;;;;;-4.40;99.90;;;;;;5019425;28;20048;-64
2022/12/18 05:54:51;;;;;;;96.45;35.42;;;-4.50;99.90;;;;;;5018968;28;19924;-64
2022/12/18 05:57:18;;;;;;;95.63;35.40;;;-4.50;99.90;;;;;;5017041;28;20050;-64
2022/12/18 05:59:45;;;;;;;94.93;35.13;;;-4.50;99.90;;;;;;5017854;28;20056;-64
2022/12/18 06:02:12;;;;;;;85.32;32.08;;;-4.50;99.90;;;;;;5019952;28;20044;-65
2022/12/18 06:04:39;;;;;;;97.85;37.13;;;-4.60;99.90;;;;;;5016571;28;20053;-65
2022/12/18 06:07:06;;;;;;;87.38;33.63;;;-4.60;99.90;;;;;;5016350;28;20055;-63
2022/12/18 06:09:33;;;;;;;94.43;35.05;;;-4.60;99.90;;;;;;5015250;28;20049;-63
2022/12/18 06:11:59;;;;;;;91.40;36.30;;;-4.70;99.90;;;;;;5015850;28;20046;-63
2022/12/18 06:14:26;;;;;;;89.15;37.30;;;-4.70;99.90;;;;;;5017686;28;20748;-62
2022/12/18 06:16:53;;;;;;;95.85;33.40;;;-4.70;99.90;;;;;;5014649;28;20534;-63
2022/12/18 06:19:20;;;;;;;96.00;35.83;;;-4.70;99.90;;;;;;5018335;28;20045;-63
2022/12/18 06:21:46;;;;;;;99.25;36.17;;;-4.80;99.90;;;;;;5019525;28;20953;-65
2022/12/18 06:24:13;;;;;;;91.70;33.78;;;-4.80;99.90;;;;;;5015658;28;20054;-63
2022/12/18 06:26:40;;;;;;;87.97;33.20;;;-4.80;99.90;;;;;;5016572;28;20064;-64
2022/12/18 06:29:07;;;;;;;96.95;35.33;;;-4.80;99.90;;;;;;5016658;28;20047;-64
2022/12/18 06:31:34;;;;;;;84.85;33.45;;;-4.80;99.90;;;;;;5016926;28;20041;-64
2022/12/18 06:34:04;;;;;;;86.40;35.47;;;-4.80;99.90;;;;;;5016219;28;20041;-64
2022/12/18 06:36:31;;;;;;;94.18;34.17;;;-4.80;99.90;;;;;;5016230;28;20053;-65
2022/12/18 06:38:58;;;;;;;88.05;35.45;;;-4.70;99.90;;;;;;5019048;28;20056;-64
2022/12/18 06:41:25;;;;;;;86.28;33.05;;;-4.80;99.90;;;;;;5016774;28;20051;-64
2022/12/18 06:43:52;;;;;;;88.43;33.58;;;-4.80;99.90;;;;;;5016937;28;20130;-63
2022/12/18 06:46:25;;;;;;;84.53;33.70;;;-4.70;99.90;;;;;;5017770;28;20064;-64
2022/12/18 06:48:52;;;;;;;84.10;32.42;;;-4.80;99.90;;;;;;5016826;28;20051;-64
2022/12/18 06:51:21;;;;;;;95.60;35.28;;;-4.80;99.90;;;;;;5021323;28;20047;-64
2022/12/18 06:53:47;;;;;;;92.82;32.10;;;-4.80;99.90;;;;;;5017953;28;20069;-64
2022/12/18 06:56:14;;;;;;;80.75;30.73;;;-4.80;99.90;;;;;;5019567;28;20129;-64
2022/12/18 06:58:41;;;;;;;80.78;31.38;;;-4.80;99.90;;;;;;5017284;28;20059;-63
2022/12/18 07:01:10;;;;;;;92.43;31.70;;;-4.90;99.90;;;;;;5017573;28;20670;-65
2022/12/18 07:03:39;;;;;;;81.95;32.40;;;-4.80;99.90;;;;;;5017245;28;20045;-64
2022/12/18 07:06:14;;;;;;;86.25;32.97;;;-4.80;99.90;;;;;;5019055;28;20057;-64
2022/12/18 07:08:41;;;;;;;85.78;31.98;;;-4.90;99.90;;;;;;5016973;28;20041;-63
2022/12/18 07:11:08;;;;;;;82.05;32.88;;;-4.90;99.90;;;;;;5016112;28;20423;-65
2022/12/18 07:13:35;;;;;;;89.30;32.35;;;-4.90;99.90;;;;;;5016823;28;20049;-64
2022/12/18 07:16:07;;;;;;;84.07;33.65;;;-4.90;99.90;;;;;;5014057;28;20037;-64
2022/12/18 07:18:45;;;;;;;87.45;31.92;;;-4.90;99.90;;;;;;5017741;28;20057;-61
2022/12/18 07:21:14;;;;;;;89.35;32.45;;;-5.00;99.90;;;;;;5015618;28;20037;-63
2022/12/18 07:23:41;;;;;;;81.30;31.42;;;-5.00;99.90;;;;;;5033758;28;20893;-53
2022/12/18 07:26:11;;;;;;;76.07;29.98;;;-5.00;99.90;;;;;;5016790;28;20131;-54
2022/12/18 07:28:40;;;;;;;88.20;32.30;;;-5.00;99.90;;;;;;5017412;28;20067;-54
2022/12/18 07:31:09;;;;;;;88.75;34.10;;;-5.10;99.90;;;;;;5018715;28;20055;-53
2022/12/18 07:33:37;;;;;;;86.45;32.28;;;-5.00;99.90;;;;;;5014733;28;20312;-54
2022/12/18 07:36:07;;;;;;;85.45;32.22;;;-5.00;99.90;;;;;;5018069;28;20122;-54
2022/12/18 07:38:35;;;;;;;86.75;30.40;;;-5.00;99.90;;;;;;5016310;28;20047;-54
2022/12/18 07:41:03;;;;;;;86.57;32.70;;;-5.00;99.90;;;;;;5017621;28;20845;-52
2022/12/18 07:43:33;;;;;;;89.35;31.45;;;-5.00;99.90;;;;;;5015088;28;20045;-52
2022/12/18 07:46:00;;;;;;;91.25;33.45;;;-5.00;99.90;;;;;;5031768;28;20136;-54
2022/12/18 07:48:28;;;;;;;81.93;31.95;;;-4.90;99.90;;;;;;5015298;28;20503;-52
2022/12/18 07:51:04;;;;;;;90.95;33.50;;;-4.90;99.90;;;;;;5017271;28;20045;-54
2022/12/18 07:53:31;;;;;;;105.43;34.75;;;-4.90;99.90;;;;;;5015879;28;20563;-56
2022/12/18 07:56:00;;;;;;;87.18;32.17;;;-4.80;99.90;;;;;;5016065;28;20068;-56
2022/12/18 07:58:47;;;;;;;83.50;30.75;;;-4.80;99.90;;;;;;5014442;28;20828;-51
2022/12/18 08:01:14;;;;;;;91.10;32.67;;;-4.90;99.90;;;;;;5014774;28;20048;-55
2022/12/18 08:03:41;;;;;;;87.63;32.55;;;-4.80;99.90;;;;;;5015738;28;20291;-53
2022/12/18 08:06:09;;;;;;;93.07;32.97;;;-4.80;99.90;;;;;;5016269;28;21010;-56
2022/12/18 08:08:36;;;;;;;84.35;31.33;;;-4.90;99.90;;;;;;5014675;28;20045;-54
2022/12/18 08:11:03;;;;;;;84.78;31.48;;;-4.90;99.90;;;;;;5014624;28;20041;-58
2022/12/18 08:13:31;;;;;;;94.22;32.10;;;-4.90;99.90;;;;;;5014692;28;20641;-53
2022/12/18 08:15:59;;;;;;;95.38;33.65;;;-4.90;99.90;;;;;;5013285;28;20059;-55
2022/12/18 08:18:26;;;;;;;84.60;34.35;;;-4.90;99.90;;;;;;5011660;28;20050;-55
2022/12/18 08:20:55;;;;;;;85.20;32.38;;;-4.90;99.90;;;;;;5017643;28;20119;-54
2022/12/18 08:23:22;;;;;;;76.07;29.77;;;-4.90;99.90;;;;;;5013975;28;20049;-53
2022/12/18 08:25:49;;;;;;;77.97;29.10;;;-5.00;99.90;;;;;;5017243;28;20052;-54
2022/12/18 08:28:17;;;;;;;80.25;28.92;;;-5.00;99.90;;;;;;5016692;28;20456;-54
2022/12/18 08:30:44;;;;;;;90.03;32.80;;;-5.00;99.90;;;;;;5013158;28;20267;-54
2022/12/18 08:33:12;;;;;;;75.32;30.00;;;-5.00;99.90;;;;;;5015055;28;20532;-53
2022/12/18 08:35:39;;;;;;;85.53;30.42;;;-5.00;99.90;;;;;;5015128;28;20044;-54
2022/12/18 08:38:11;;;;;;;95.65;31.85;;;-5.00;99.90;;;;;;5014211;28;20051;-53
2022/12/18 08:40:38;;;;;;;92.60;30.95;;;-4.90;99.90;;;;;;5014079;28;20799;-53
2022/12/18 08:45:50;;;;;;;88.32;30.65;;;-4.80;99.90;;;;;;5014874;28;20107;-54
2022/12/18 08:48:17;;;;;;;80.88;30.45;;;-4.80;99.90;;;;;;5014801;28;20424;-56
2022/12/18 08:50:58;;;;;;;91.15;34.22;;;-4.80;99.90;;;;;;5014069;28;20061;-55
2022/12/18 08:53:26;;;;;;;89.10;35.08;;;-4.70;99.90;;;;;;5013750;28;20054;-53
2022/12/18 08:55:59;;;;;;;96.07;36.78;;;-4.70;99.90;;;;;;5016147;28;20724;-50
2022/12/18 08:58:26;;;;;;;80.65;30.95;;;-4.70;99.90;;;;;;5015273;28;20515;-52
2022/12/18 09:00:53;;;;;;;90.03;32.85;;;-4.60;99.90;;;;;;5012342;28;20045;-52
2022/12/18 09:03:22;;;;;;;90.85;32.17;;;-4.60;99.90;;;;;;5014030;28;20052;-53
2022/12/18 09:05:49;;;;;;;96.85;37.17;;;-4.50;99.90;;;;;;5013538;28;20069;-53
2022/12/18 09:08:16;;;;;;;96.95;36.55;;;-4.50;99.90;;;;;;5016019;28;20366;-55
2022/12/18 09:10:48;;;;;;;98.45;34.17;;;-4.40;99.90;;;;;;5015171;28;20046;-54
2022/12/18 09:13:16;;;;;;;94.40;34.85;;;-4.40;99.90;;;;;;5013324;28;20037;-54
2022/12/18 09:15:45;;;;;;;94.85;34.72;;;-4.30;99.90;;;;;;5016513;28;20203;-55
2022/12/18 09:18:13;;;;;;;101.50;36.13;;;-4.30;99.90;;;;;;5010798;28;20713;-53
2022/12/18 09:20:41;;;;;;;96.05;34.83;;;-4.30;99.90;;;;;;5015042;28;20151;-56
2022/12/18 09:23:08;;;;;;;95.70;32.38;;;-4.20;99.90;;;;;;5015705;28;20041;-53
2022/12/18 09:25:36;;;;;;;103.90;35.38;;;-4.20;99.90;;;;;;5014837;28;20681;-53
2022/12/18 09:28:06;;;;;;;99.18;33.75;;;-4.20;99.90;;;;;;5013037;28;20701;-52
2022/12/18 09:30:33;;;;;;;95.22;34.55;;;-4.20;99.90;;;;;;5014063;28;20026;-54
2022/12/18 09:33:01;;;;;;;96.03;32.17;;;-4.20;99.90;;;;;;5016226;28;20164;-54
2022/12/18 09:35:28;;;;;;;87.55;31.73;;;-4.20;99.90;;;;;;5012809;28;20119;-52
2022/12/18 09:37:55;;;;;;;87.20;33.65;;;-4.20;99.90;;;;;;5013926;28;20372;-54
2022/12/18 09:40:25;;;;;;;100.72;35.17;;;-4.10;99.90;;;;;;5014780;28;20772;-52
2022/12/18 09:42:57;;;;;;;96.90;35.38;;;-4.10;99.90;;;;;;5015805;28;20730;-51
2022/12/18 09:45:24;;;;;;;97.45;35.10;;;-4.10;99.90;;;;;;5013840;28;20148;-52
2022/12/18 09:47:54;;;;;;;80.15;31.20;;;-4.00;99.90;;;;;;5013176;28;20651;-53
2022/12/18 09:50:27;;;;;;;90.53;34.67;;;-4.00;99.90;;;;;;5012417;28;20346;-52
2022/12/18 09:52:57;;;;;;;87.72;33.75;;;-4.00;99.90;;;;;;5016665;28;20041;-54
2022/12/18 09:55:45;;;;;;;95.60;35.30;;;-4.00;99.90;;;;;;5014282;28;20127;-52
2022/12/18 09:58:39;;;;;;;86.18;33.42;;;-4.00;99.90;;;;;;5014663;28;20052;-53
2022/12/18 10:01:14;;;;;;;94.10;33.72;;;-4.00;99.90;;;;;;5015028;28;20180;-53
2022/12/18 10:03:44;;;;;;;;;;;-3.90;99.90;;;;;;5012716;28;20042;-52
2022/12/18 10:06:35;;;;;;;90.37;31.43;;;-3.90;99.90;;;;;;5015183;28;20411;-53
2022/12/18 10:09:06;;;;;;;101.38;34.33;;;-3.90;99.90;;;;;;5013050;28;20045;-54
2022/12/18 10:11:41;;;;;;;98.47;35.60;;;-3.90;99.90;;;;;;5014465;28;20037;-54
2022/12/18 10:14:26;;;;;;;93.65;33.55;;;-3.90;99.90;;;;;;5017756;28;20116;-53
2022/12/18 10:17:22;;;;;;;93.57;32.50;;;-3.90;99.90;;;;;;5017822;28;20045;-54
2022/12/18 10:20:10;;;;;;;103.65;36.08;;;-3.80;99.90;;;;;;5016213;28;20170;-54
2022/12/18 10:22:49;;;;;;;98.78;34.88;;;-3.70;99.90;;;;;;5018883;28;20077;-54
2022/12/18 10:25:46;;;;;;;93.00;34.45;;;-3.70;99.90;;;;;;5018875;28;20136;-53
2022/12/18 10:28:16;;;;;;;94.15;34.05;;;-3.60;99.90;;;;;;5017683;28;20132;-52
2022/12/18 10:30:43;;;;;;;87.32;32.95;;;-3.50;99.90;;;;;;5018067;28;20037;-54
2022/12/18 10:33:15;;;;;;;92.20;34.33;;;-3.50;99.90;;;;;;5017319;28;20111;-54
2022/12/18 10:35:43;;;;;;;91.18;33.65;;;-3.40;99.90;;;;;;5018284;28;20126;-53
2022/12/18 10:38:16;;;;;;;92.10;35.53;;;-3.40;99.90;;;;;;5017529;28;20135;-52
2022/12/18 10:40:54;;;;;;;96.20;34.15;;;-3.30;99.90;;;;;;5016088;28;20139;-52
2022/12/18 10:43:25;;;;;;;100.80;35.28;;;-3.30;99.90;;;;;;5018429;28;20903;-52
2022/12/18 10:46:08;;;;;;;93.65;32.38;;;-3.20;99.90;;;;;;5016879;28;20079;-53
2022/12/18 10:48:47;;;;;;;104.80;35.10;;;-3.20;99.90;;;;;;5017693;28;21103;-53
2022/12/18 10:51:37;;;;;;;109.40;36.90;;;-3.20;99.90;;;;;;5020405;28;20049;-54
2022/12/18 10:54:06;;;;;;;94.72;35.40;;;-3.10;99.90;;;;;;5019983;28;20045;-53
2022/12/18 10:56:37;;;;;;;101.35;35.25;;;-3.00;99.90;;;;;;5018812;28;20048;-53
2022/12/18 10:59:07;;;;;;;94.68;33.83;;;-3.00;99.90;;;;;;5017428;28;20099;-53
2022/12/18 11:01:48;;;;;;;94.18;35.63;;;-2.90;99.90;;;;;;5017030;28;20045;-51
2022/12/18 11:04:24;;;;;;;96.80;35.47;;;-2.80;99.90;;;;;;5016395;28;20057;-53
2022/12/18 11:06:57;;;;;;;94.95;35.00;;;-2.80;99.90;;;;;;5016045;28;20055;-52
2022/12/18 11:09:32;;;;;;;83.20;34.08;;;-2.70;99.90;;;;;;5016050;28;20049;-53
2022/12/18 11:12:01;;;;;;;108.32;39.20;;;-2.70;99.90;;;;;;5017168;28;20079;-53
2022/12/18 11:14:47;;;;;;;92.25;38.75;;;-2.60;99.90;;;;;;5015255;28;20993;-52
2022/12/18 11:17:21;;;;;;;106.68;37.95;;;-2.60;99.90;;;;;;5018413;28;20569;-51
2022/12/18 11:19:55;;;;;;;95.85;35.72;;;-2.60;99.90;;;;;;5017731;28;20099;-56
2022/12/18 11:22:27;;;;;;;87.50;34.13;;;-2.50;99.90;;;;;;5015714;28;20045;-53
2022/12/18 11:25:18;;;;;;;78.82;31.85;;;-2.50;99.90;;;;;;5023793;28;20041;-53
2022/12/18 11:28:05;;;;;;;91.28;32.95;;;-2.40;99.90;;;;;;5028154;28;20127;-53
2022/12/18 11:30:35;;;;;;;91.35;35.05;;;-2.40;99.90;;;;;;5016784;28;20922;-53
2022/12/18 11:33:19;;;;;;;88.05;34.60;;;-2.30;99.90;;;;;;5017809;28;20147;-52
2022/12/18 11:35:56;;;;;;;83.38;33.40;;;-2.30;99.90;;;;;;5015624;28;20135;-52
2022/12/18 11:38:28;;;;;;;93.13;34.92;;;-2.40;99.90;;;;;;5017054;28;20049;-54
2022/12/18 11:42:08;;;;;;;97.45;37.60;;;-2.50;99.90;;;;;;5014550;28;20053;-53
2022/12/18 11:44:18;;;;;;;89.15;34.10;;;-2.50;99.90;;;;;;5016934;28;20057;-52
2022/12/18 11:46:51;;;;;;;86.30;32.50;;;-2.60;99.90;;;;;;5019898;28;20046;-51
2022/12/18 11:49:28;;;;;;;91.55;34.53;;;-2.60;99.90;;;;;;5015432;28;20371;-53
2022/12/18 11:51:57;;;;;;;107.68;37.35;;;-2.50;99.90;;;;;;5016443;28;20073;-53
2022/12/18 11:54:24;;;;;;;90.72;33.55;;;-2.50;99.90;;;;;;5016405;28;20048;-54
2022/12/18 11:56:55;;;;;;;;;;;-2.50;99.90;;;;;;5013681;28;20041;-54
2022/12/18 11:59:48;;;;;;;104.15;36.97;;;-2.50;99.90;;;;;;5017675;28;20384;-51
2022/12/18 12:02:34;;;;;;;100.70;39.13;;;-2.40;99.90;;;;;;5015867;28;20045;-54
2022/12/18 12:05:06;;;;;;;101.93;37.47;;;-2.40;99.90;;;;;;5017216;28;20041;-53
2022/12/18 12:08:11;;;;;;;100.93;35.95;;;-2.40;99.90;;;;;;5017067;28;20274;-54
2022/12/18 12:11:03;;;;;;;95.38;36.72;;;-2.40;99.90;;;;;;5018350;28;20595;-50
2022/12/18 12:13:56;;;;;;;87.93;34.47;;;-2.30;99.90;;;;;;5017006;28;21038;-50
2022/12/18 12:16:45;;;;;;;94.63;35.33;;;-2.30;99.90;;;;;;5015608;28;20050;-53
2022/12/18 12:19:32;;;;;;;108.47;38.58;;;-2.30;99.90;;;;;;5014199;28;20057;-53
2022/12/18 12:22:24;;;;;;;77.95;28.77;;;-2.20;99.90;;;;;;5010085;28;20131;-52
2022/12/18 12:25:21;;;;;;;97.47;37.15;;;-2.20;99.90;;;;;;5012786;28;20049;-52
2022/12/18 12:28:14;;;;;;;99.85;37.20;;;-2.20;99.90;;;;;;5014081;28;20124;-53
2022/12/18 12:30:46;;;;;;;92.32;36.78;;;-2.20;99.90;;;;;;5016430;28;20744;-52
2022/12/18 12:33:19;;;;;;;103.15;39.67;;;-2.20;99.90;;;;;;5018879;28;20332;-53
2022/12/18 12:36:04;;;;;;;103.40;38.95;;;-2.20;99.90;;;;;;5014365;28;20052;-53
2022/12/18 12:38:40;;;;;;;98.05;37.47;;;-2.10;99.90;;;;;;5012810;28;20060;-55
2022/12/18 12:43:12;;;;;;;99.00;39.67;;;-2.10;99.90;;;;;;5012525;28;20142;-54
2022/12/18 12:44:02;;;;;;;95.13;34.45;;;-2.10;99.90;;;;;;5012704;28;20415;-53
2022/12/18 12:46:32;;;;;;;84.55;34.20;;;-2.10;99.90;;;;;;5013986;28;20045;-51
2022/12/18 12:49:04;;;;;;;91.20;36.65;;;-2.10;99.90;;;;;;5013577;28;20041;-51
2022/12/18 12:51:37;;;;;;;87.32;34.38;;;-2.10;99.90;;;;;;5011368;28;20044;-54
2022/12/18 12:54:19;;;;;;;87.63;36.22;;;-2.10;99.90;;;;;;5012553;28;20045;-54
2022/12/18 12:56:59;;;;;;;86.30;34.60;;;-2.20;99.90;;;;;;5012447;28;20499;-54
2022/12/18 12:59:29;;;;;;;89.43;36.55;;;-2.20;99.90;;;;;;5016324;28;20169;-53